sensor_id;sensor_type;location;lat;lon;timestamp;pressure;altitude;pressure_sealevel;temperature;humidity
25510;BME280;13413;52.336;21.200;2023-02-16T00:02:37;101403.33;;;3.90;64.63
25510;BME280;13413;52.336;21.200;2023-02-16T00:05:33;101399.45;;;3.83;64.72
25510;BME280;13413;52.336;21.200;2023-02-16T00:08:28;101396.52;;;3.82;64.90
25510;BME280;13413;52.336;21.200;2023-02-16T00:11:25;101390.93;;;3.80;64.77
25510;BME280;13413;52.336;21.200;2023-02-16T00:14:22;101385.16;;;3.77;64.78
25510;BME280;13413;52.336;21.200;2023-02-16T00:17:16;101379.88;;;3.70;64.97
25510;BME280;13413;52.336;21.200;2023-02-16T00:23:08;101367.41;;;3.58;64.97
25510;BME280;13413;52.336;21.200;2023-02-16T00:26:02;101363.01;;;3.53;64.92
25510;BME280;13413;52.336;21.200;2023-02-16T00:28:57;101363.77;;;3.53;64.96
25510;BME280;13413;52.336;21.200;2023-02-16T00:31:52;101358.63;;;3.49;65.43
25510;BME280;13413;52.336;21.200;2023-02-16T00:34:49;101351.12;;;3.49;65.11
25510;BME280;13413;52.336;21.200;2023-02-16T00:37:43;101346.86;;;3.50;65.19
25510;BME280;13413;52.336;21.200;2023-02-16T00:40:38;101344.41;;;3.50;65.32
25510;BME280;13413;52.336;21.200;2023-02-16T00:43:32;101343.38;;;3.52;65.42
25510;BME280;13413;52.336;21.200;2023-02-16T00:46:26;101333.92;;;3.52;65.67
25510;BME280;13413;52.336;21.200;2023-02-16T00:49:21;101333.55;;;3.52;65.55
25510;BME280;13413;52.336;21.200;2023-02-16T00:52:32;101330.86;;;3.53;65.40
25510;BME280;13413;52.336;21.200;2023-02-16T00:55:29;101333.80;;;3.56;65.48
25510;BME280;13413;52.336;21.200;2023-02-16T00:58:26;101333.52;;;3.58;65.58
25510;BME280;13413;52.336;21.200;2023-02-16T01:01:25;101335.27;;;3.60;65.39
25510;BME280;13413;52.336;21.200;2023-02-16T01:04:23;101332.62;;;3.63;65.51
25510;BME280;13413;52.336;21.200;2023-02-16T01:07:19;101334.55;;;3.65;65.35
25510;BME280;13413;52.336;21.200;2023-02-16T01:13:07;101327.45;;;3.67;65.29
25510;BME280;13413;52.336;21.200;2023-02-16T01:16:01;101321.70;;;3.64;65.33
25510;BME280;13413;52.336;21.200;2023-02-16T01:18:55;101314.10;;;3.60;65.37
25510;BME280;13413;52.336;21.200;2023-02-16T01:27:23;101308.98;;;3.56;65.41
25510;BME280;13413;52.336;21.200;2023-02-16T01:30:19;101303.42;;;3.51;65.77
25510;BME280;13413;52.336;21.200;2023-02-16T01:33:13;101303.48;;;3.49;65.70
25510;BME280;13413;52.336;21.200;2023-02-16T01:36:21;101298.48;;;3.51;65.86
25510;BME280;13413;52.336;21.200;2023-02-16T01:39:17;101296.59;;;3.53;65.76
25510;BME280;13413;52.336;21.200;2023-02-16T01:42:25;101286.66;;;3.53;65.70
25510;BME280;13413;52.336;21.200;2023-02-16T01:45:27;101286.48;;;3.50;65.64
25510;BME280;13413;52.336;21.200;2023-02-16T01:48:27;101280.78;;;3.52;65.64
25510;BME280;13413;52.336;21.200;2023-02-16T01:51:25;101278.61;;;3.50;65.70
25510;BME280;13413;52.336;21.200;2023-02-16T01:54:37;101274.65;;;3.52;66.00
25510;BME280;13413;52.336;21.200;2023-02-16T01:57:38;101272.98;;;3.51;65.68
25510;BME280;13413;52.336;21.200;2023-02-16T02:06:52;101271.29;;;3.43;65.82
25510;BME280;13413;52.336;21.200;2023-02-16T02:09:51;101271.13;;;3.40;66.13
25510;BME280;13413;52.336;21.200;2023-02-16T02:12:54;101268.42;;;3.39;65.79
25510;BME280;13413;52.336;21.200;2023-02-16T02:15:49;101264.77;;;3.39;65.76
25510;BME280;13413;52.336;21.200;2023-02-16T02:18:43;101264.44;;;3.38;65.87
25510;BME280;13413;52.336;21.200;2023-02-16T02:21:54;101263.92;;;3.33;65.85
25510;BME280;13413;52.336;21.200;2023-02-16T02:25:16;101258.36;;;3.30;65.93
25510;BME280;13413;52.336;21.200;2023-02-16T02:28:18;101255.10;;;3.32;65.74
25510;BME280;13413;52.336;21.200;2023-02-16T02:31:23;101252.73;;;3.38;65.68
25510;BME280;13413;52.336;21.200;2023-02-16T02:34:27;101246.05;;;3.38;65.70
25510;BME280;13413;52.336;21.200;2023-02-16T02:37:31;101245.77;;;3.35;65.86
25510;BME280;13413;52.336;21.200;2023-02-16T02:40:36;101241.77;;;3.35;65.70
25510;BME280;13413;52.336;21.200;2023-02-16T02:43:37;101241.01;;;3.33;65.68
25510;BME280;13413;52.336;21.200;2023-02-16T02:46:33;101238.88;;;3.32;65.82
25510;BME280;13413;52.336;21.200;2023-02-16T02:49:28;101232.60;;;3.29;65.79
25510;BME280;13413;52.336;21.200;2023-02-16T02:52:23;101228.67;;;3.27;65.72
25510;BME280;13413;52.336;21.200;2023-02-16T02:55:17;101226.92;;;3.25;65.80
25510;BME280;13413;52.336;21.200;2023-02-16T02:58:12;101223.57;;;3.25;65.79
25510;BME280;13413;52.336;21.200;2023-02-16T03:01:07;101220.45;;;3.25;65.91
25510;BME280;13413;52.336;21.200;2023-02-16T03:04:00;101222.02;;;3.22;65.82
25510;BME280;13413;52.336;21.200;2023-02-16T03:06:55;101216.81;;;3.22;65.99
25510;BME280;13413;52.336;21.200;2023-02-16T03:09:50;101210.48;;;3.22;66.06
25510;BME280;13413;52.336;21.200;2023-02-16T03:12:44;101205.33;;;3.21;65.68
25510;BME280;13413;52.336;21.200;2023-02-16T03:15:40;101196.98;;;3.20;65.75
25510;BME280;13413;52.336;21.200;2023-02-16T03:18:36;101191.63;;;3.22;65.68
25510;BME280;13413;52.336;21.200;2023-02-16T03:21:31;101195.96;;;3.20;65.82
25510;BME280;13413;52.336;21.200;2023-02-16T03:24:25;101196.86;;;3.20;65.80
25510;BME280;13413;52.336;21.200;2023-02-16T03:27:23;101190.74;;;3.20;66.03
25510;BME280;13413;52.336;21.200;2023-02-16T03:30:19;101183.25;;;3.15;65.92
25510;BME280;13413;52.336;21.200;2023-02-16T03:36:09;101180.84;;;3.12;66.08
25510;BME280;13413;52.336;21.200;2023-02-16T03:45:50;101179.65;;;3.18;66.01
25510;BME280;13413;52.336;21.200;2023-02-16T03:48:44;101175.06;;;3.17;65.97
25510;BME280;13413;52.336;21.200;2023-02-16T03:51:38;101168.73;;;3.15;66.01
25510;BME280;13413;52.336;21.200;2023-02-16T03:54:32;101164.60;;;3.11;65.93
25510;BME280;13413;52.336;21.200;2023-02-16T03:57:26;101155.58;;;3.11;65.97
25510;BME280;13413;52.336;21.200;2023-02-16T04:00:22;101152.35;;;3.07;66.09
25510;BME280;13413;52.336;21.200;2023-02-16T04:03:16;101146.58;;;3.07;66.09
25510;BME280;13413;52.336;21.200;2023-02-16T04:06:11;101145.98;;;3.10;66.01
25510;BME280;13413;52.336;21.200;2023-02-16T04:09:03;101141.55;;;3.09;66.11
25510;BME280;13413;52.336;21.200;2023-02-16T04:11:57;101141.31;;;3.10;66.16
25510;BME280;13413;52.336;21.200;2023-02-16T04:14:51;101139.55;;;3.12;66.04
25510;BME280;13413;52.336;21.200;2023-02-16T04:17:45;101133.85;;;3.12;66.12
25510;BME280;13413;52.336;21.200;2023-02-16T04:20:38;101126.58;;;3.11;65.97
25510;BME280;13413;52.336;21.200;2023-02-16T04:23:32;101128.77;;;3.07;65.69
25510;BME280;13413;52.336;21.200;2023-02-16T04:26:26;101134.02;;;3.07;65.97
25510;BME280;13413;52.336;21.200;2023-02-16T04:29:20;101133.64;;;3.05;65.95
25510;BME280;13413;52.336;21.200;2023-02-16T04:32:14;101129.17;;;3.04;65.79
25510;BME280;13413;52.336;21.200;2023-02-16T04:35:09;101128.52;;;2.98;65.84
25510;BME280;13413;52.336;21.200;2023-02-16T04:38:01;101125.56;;;2.98;65.91
25510;BME280;13413;52.336;21.200;2023-02-16T04:40:55;101121.98;;;2.94;65.97
25510;BME280;13413;52.336;21.200;2023-02-16T04:43:49;101117.49;;;2.91;66.00
25510;BME280;13413;52.336;21.200;2023-02-16T04:46:43;101118.28;;;2.93;66.15
25510;BME280;13413;52.336;21.200;2023-02-16T04:49:37;101123.79;;;2.94;65.76
25510;BME280;13413;52.336;21.200;2023-02-16T04:52:48;101121.09;;;2.95;65.92
25510;BME280;13413;52.336;21.200;2023-02-16T04:55:46;101125.95;;;2.95;65.79
25510;BME280;13413;52.336;21.200;2023-02-16T04:58:40;101126.83;;;2.95;65.84
25510;BME280;13413;52.336;21.200;2023-02-16T05:01:34;101129.69;;;2.96;65.70
25510;BME280;13413;52.336;21.200;2023-02-16T05:04:28;101122.71;;;2.96;65.81
25510;BME280;13413;52.336;21.200;2023-02-16T05:07:22;101120.95;;;2.99;65.75
25510;BME280;13413;52.336;21.200;2023-02-16T05:10:16;101119.92;;;2.99;65.81
25510;BME280;13413;52.336;21.200;2023-02-16T05:13:11;101115.95;;;2.98;65.81
25510;BME280;13413;52.336;21.200;2023-02-16T05:16:06;101113.83;;;2.98;65.62
25510;BME280;13413;52.336;21.200;2023-02-16T05:19:00;101111.41;;;2.95;65.66
25510;BME280;13413;52.336;21.200;2023-02-16T05:21:54;101107.34;;;2.89;65.84
25510;BME280;13413;52.336;21.200;2023-02-16T05:24:48;101106.46;;;2.84;66.01
25510;BME280;13413;52.336;21.200;2023-02-16T05:27:42;101103.85;;;2.81;65.93
25510;BME280;13413;52.336;21.200;2023-02-16T05:33:29;101106.77;;;2.83;65.94
25510;BME280;13413;52.336;21.200;2023-02-16T05:36:23;101106.55;;;2.85;65.96
25510;BME280;13413;52.336;21.200;2023-02-16T05:39:17;101110.71;;;2.86;65.55
25510;BME280;13413;52.336;21.200;2023-02-16T05:42:12;101105.09;;;2.84;65.93
25510;BME280;13413;52.336;21.200;2023-02-16T05:45:07;101104.65;;;2.80;65.80
25510;BME280;13413;52.336;21.200;2023-02-16T05:48:01;101106.08;;;2.79;65.70
25510;BME280;13413;52.336;21.200;2023-02-16T05:50:55;101106.59;;;2.77;65.86
25510;BME280;13413;52.336;21.200;2023-02-16T05:53:49;101104.52;;;2.72;65.91
25510;BME280;13413;52.336;21.200;2023-02-16T05:56:48;101106.91;;;2.72;66.14
25510;BME280;13413;52.336;21.200;2023-02-16T06:06:48;101083.16;;;2.75;65.77
25510;BME280;13413;52.336;21.200;2023-02-16T06:12:37;101076.79;;;2.69;65.99
25510;BME280;13413;52.336;21.200;2023-02-16T06:15:31;101069.05;;;2.72;66.10
25510;BME280;13413;52.336;21.200;2023-02-16T06:18:26;101077.81;;;2.74;66.10
25510;BME280;13413;52.336;21.200;2023-02-16T06:21:20;101079.85;;;2.75;66.07
25510;BME280;13413;52.336;21.200;2023-02-16T06:24:13;101082.03;;;2.76;66.06
25510;BME280;13413;52.336;21.200;2023-02-16T06:27:07;101089.25;;;2.80;65.94
25510;BME280;13413;52.336;21.200;2023-02-16T06:30:02;101095.20;;;2.90;65.87
25510;BME280;13413;52.336;21.200;2023-02-16T06:32:55;101097.41;;;3.01;66.02
25510;BME280;13413;52.336;21.200;2023-02-16T06:36:03;101094.35;;;3.09;65.81
25510;BME280;13413;52.336;21.200;2023-02-16T06:38:57;101090.83;;;3.05;65.76
25510;BME280;13413;52.336;21.200;2023-02-16T06:41:51;101092.48;;;3.04;65.78
25510;BME280;13413;52.336;21.200;2023-02-16T06:44:44;101091.75;;;3.07;65.92
25510;BME280;13413;52.336;21.200;2023-02-16T06:47:38;101088.91;;;3.12;65.76
25510;BME280;13413;52.336;21.200;2023-02-16T06:50:32;101082.26;;;3.15;65.81
25510;BME280;13413;52.336;21.200;2023-02-16T06:53:26;101083.44;;;3.17;65.65
25510;BME280;13413;52.336;21.200;2023-02-16T06:56:20;101081.23;;;3.19;65.89
25510;BME280;13413;52.336;21.200;2023-02-16T06:59:15;101082.05;;;3.22;65.72
25510;BME280;13413;52.336;21.200;2023-02-16T07:02:09;101078.52;;;3.25;65.78
25510;BME280;13413;52.336;21.200;2023-02-16T07:05:04;101081.29;;;3.28;65.86
25510;BME280;13413;52.336;21.200;2023-02-16T07:07:58;101082.58;;;3.30;66.12
25510;BME280;13413;52.336;21.200;2023-02-16T07:10:56;101079.95;;;3.37;65.85
25510;BME280;13413;52.336;21.200;2023-02-16T07:13:50;101080.95;;;3.42;66.00
25510;BME280;13413;52.336;21.200;2023-02-16T07:16:44;101072.98;;;3.50;66.03
25510;BME280;13413;52.336;21.200;2023-02-16T07:19:38;101070.32;;;3.58;66.10
25510;BME280;13413;52.336;21.200;2023-02-16T07:22:31;101069.77;;;3.63;65.91
25510;BME280;13413;52.336;21.200;2023-02-16T07:25:26;101069.78;;;3.67;66.14
25510;BME280;13413;52.336;21.200;2023-02-16T07:28:20;101078.00;;;3.70;66.15
25510;BME280;13413;52.336;21.200;2023-02-16T07:31:15;101073.85;;;3.79;66.15
25510;BME280;13413;52.336;21.200;2023-02-16T07:34:08;101073.68;;;3.86;66.13
25510;BME280;13413;52.336;21.200;2023-02-16T07:37:03;101068.94;;;3.93;66.39
25510;BME280;13413;52.336;21.200;2023-02-16T07:39:56;101060.45;;;3.98;66.39
25510;BME280;13413;52.336;21.200;2023-02-16T07:42:50;101051.06;;;4.02;66.44
25510;BME280;13413;52.336;21.200;2023-02-16T07:46:02;101052.66;;;4.11;66.55
25510;BME280;13413;52.336;21.200;2023-02-16T07:48:56;101053.54;;;4.17;66.43
25510;BME280;13413;52.336;21.200;2023-02-16T07:51:49;101055.69;;;4.24;66.42
25510;BME280;13413;52.336;21.200;2023-02-16T07:54:44;101053.59;;;4.30;66.36
25510;BME280;13413;52.336;21.200;2023-02-16T07:57:39;101050.21;;;4.36;66.35
25510;BME280;13413;52.336;21.200;2023-02-16T08:00:33;101050.58;;;4.40;66.43
25510;BME280;13413;52.336;21.200;2023-02-16T08:03:27;101047.97;;;4.46;66.45
25510;BME280;13413;52.336;21.200;2023-02-16T08:06:21;101041.58;;;4.52;66.16
25510;BME280;13413;52.336;21.200;2023-02-16T08:09:15;101042.92;;;4.62;66.28
25510;BME280;13413;52.336;21.200;2023-02-16T08:12:11;101039.80;;;4.68;66.25
25510;BME280;13413;52.336;21.200;2023-02-16T08:15:09;101032.73;;;4.73;66.40
25510;BME280;13413;52.336;21.200;2023-02-16T08:18:01;101030.67;;;4.81;66.37
25510;BME280;13413;52.336;21.200;2023-02-16T08:31:23;101029.88;;;5.26;66.50
25510;BME280;13413;52.336;21.200;2023-02-16T08:34:19;101036.40;;;5.38;66.40
25510;BME280;13413;52.336;21.200;2023-02-16T08:37:13;101035.55;;;5.54;66.52
25510;BME280;13413;52.336;21.200;2023-02-16T08:43:16;101037.50;;;5.71;66.09
25510;BME280;13413;52.336;21.200;2023-02-16T08:49:07;101040.88;;;5.99;65.93
25510;BME280;13413;52.336;21.200;2023-02-16T08:52:01;101042.41;;;6.13;65.95
25510;BME280;13413;52.336;21.200;2023-02-16T08:54:55;101045.02;;;6.29;65.74
25510;BME280;13413;52.336;21.200;2023-02-16T08:57:49;101043.14;;;6.43;65.43
25510;BME280;13413;52.336;21.200;2023-02-16T09:00:43;101040.12;;;6.49;64.91
25510;BME280;13413;52.336;21.200;2023-02-16T09:03:37;101031.30;;;6.56;64.86
25510;BME280;13413;52.336;21.200;2023-02-16T09:06:32;101032.42;;;6.57;64.45
25510;BME280;13413;52.336;21.200;2023-02-16T09:09:29;101028.13;;;6.62;64.54
25510;BME280;13413;52.336;21.200;2023-02-16T09:12:23;101023.80;;;6.71;64.02
25510;BME280;13413;52.336;21.200;2023-02-16T09:15:17;101020.70;;;6.76;63.95
25510;BME280;13413;52.336;21.200;2023-02-16T09:18:11;101028.05;;;6.89;64.18
25510;BME280;13413;52.336;21.200;2023-02-16T09:21:06;101019.25;;;6.96;63.78
25510;BME280;13413;52.336;21.200;2023-02-16T09:24:02;101023.68;;;7.04;63.29
25510;BME280;13413;52.336;21.200;2023-02-16T09:26:57;101018.61;;;7.10;63.33
25510;BME280;13413;52.336;21.200;2023-02-16T09:29:51;101018.27;;;7.21;63.13
25510;BME280;13413;52.336;21.200;2023-02-16T09:32:45;101023.83;;;7.35;62.99
25510;BME280;13413;52.336;21.200;2023-02-16T09:35:40;101029.61;;;7.49;63.00
25510;BME280;13413;52.336;21.200;2023-02-16T09:38:36;101034.38;;;7.66;62.46
25510;BME280;13413;52.336;21.200;2023-02-16T09:41:36;101026.56;;;7.69;62.49
25510;BME280;13413;52.336;21.200;2023-02-16T09:44:40;101023.56;;;7.76;61.89
25510;BME280;13413;52.336;21.200;2023-02-16T09:47:40;101021.83;;;7.80;61.85
25510;BME280;13413;52.336;21.200;2023-02-16T09:50:35;101019.91;;;7.97;61.89
25510;BME280;13413;52.336;21.200;2023-02-16T09:53:34;101020.29;;;8.13;61.48
25510;BME280;13413;52.336;21.200;2023-02-16T09:56:33;101015.76;;;8.24;61.38
25510;BME280;13413;52.336;21.200;2023-02-16T09:59:40;101012.96;;;8.42;61.48
25510;BME280;13413;52.336;21.200;2023-02-16T10:02:44;101011.67;;;8.63;60.49
25510;BME280;13413;52.336;21.200;2023-02-16T10:05:46;101005.98;;;8.69;59.84
25510;BME280;13413;52.336;21.200;2023-02-16T10:08:49;101007.66;;;8.75;59.84
25510;BME280;13413;52.336;21.200;2023-02-16T10:11:47;101005.26;;;8.66;59.25
25510;BME280;13413;52.336;21.200;2023-02-16T10:14:46;101008.40;;;8.66;59.38
25510;BME280;13413;52.336;21.200;2023-02-16T10:17:47;101005.88;;;8.70;59.30
25510;BME280;13413;52.336;21.200;2023-02-16T10:20:44;101004.49;;;8.77;59.33
25510;BME280;13413;52.336;21.200;2023-02-16T10:23:45;100997.34;;;8.91;58.81
25510;BME280;13413;52.336;21.200;2023-02-16T10:26:44;101001.21;;;8.91;58.33
25510;BME280;13413;52.336;21.200;2023-02-16T10:29:39;101000.48;;;8.90;58.20
25510;BME280;13413;52.336;21.200;2023-02-16T10:32:37;100999.09;;;8.95;58.13
25510;BME280;13413;52.336;21.200;2023-02-16T10:35:39;101002.59;;;9.11;58.19
25510;BME280;13413;52.336;21.200;2023-02-16T10:38:44;100998.07;;;9.44;58.28
25510;BME280;13413;52.336;21.200;2023-02-16T10:41:42;100997.07;;;9.56;56.85
25510;BME280;13413;52.336;21.200;2023-02-16T10:50:28;100981.32;;;9.68;57.01
25510;BME280;13413;52.336;21.200;2023-02-16T10:53:34;100976.42;;;9.80;56.22
25510;BME280;13413;52.336;21.200;2023-02-16T10:56:42;100970.14;;;9.81;55.92
25510;BME280;13413;52.336;21.200;2023-02-16T10:59:40;100967.34;;;9.94;55.95
25510;BME280;13413;52.336;21.200;2023-02-16T11:02:36;100963.52;;;10.16;55.35
25510;BME280;13413;52.336;21.200;2023-02-16T11:05:37;100957.89;;;10.24;55.22
25510;BME280;13413;52.336;21.200;2023-02-16T11:08:47;100959.38;;;10.44;54.90
25510;BME280;13413;52.336;21.200;2023-02-16T11:11:42;100959.33;;;10.27;54.04
25510;BME280;13413;52.336;21.200;2023-02-16T11:17:47;100956.80;;;10.43;54.84
25510;BME280;13413;52.336;21.200;2023-02-16T11:20:55;100956.85;;;10.66;54.37
25510;BME280;13413;52.336;21.200;2023-02-16T11:23:58;100950.65;;;10.58;53.87
25510;BME280;13413;52.336;21.200;2023-02-16T11:27:03;100949.92;;;10.71;54.41
25510;BME280;13413;52.336;21.200;2023-02-16T11:30:14;100951.17;;;10.75;53.90
25510;BME280;13413;52.336;21.200;2023-02-16T11:33:22;100944.34;;;10.94;54.07
25510;BME280;13413;52.336;21.200;2023-02-16T11:36:23;100941.08;;;11.11;53.82
25510;BME280;13413;52.336;21.200;2023-02-16T11:39:23;100948.74;;;11.22;53.26
25510;BME280;13413;52.336;21.200;2023-02-16T11:42:26;100949.27;;;11.25;53.35
25510;BME280;13413;52.336;21.200;2023-02-16T11:45:28;100948.12;;;11.19;52.53
25510;BME280;13413;52.336;21.200;2023-02-16T11:48:28;100949.08;;;11.15;52.51
25510;BME280;13413;52.336;21.200;2023-02-16T11:51:33;100950.75;;;11.28;53.36
25510;BME280;13413;52.336;21.200;2023-02-16T11:54:27;100950.17;;;11.36;52.65
25510;BME280;13413;52.336;21.200;2023-02-16T11:57:26;100946.29;;;11.18;52.12
25510;BME280;13413;52.336;21.200;2023-02-16T12:00:22;100944.65;;;11.10;52.71
25510;BME280;13413;52.336;21.200;2023-02-16T12:06:46;100932.55;;;11.11;52.51
25510;BME280;13413;52.336;21.200;2023-02-16T12:09:48;100937.66;;;11.20;52.76
25510;BME280;13413;52.336;21.200;2023-02-16T12:12:51;100938.80;;;11.24;52.22
25510;BME280;13413;52.336;21.200;2023-02-16T12:16:03;100934.12;;;11.21;52.35
25510;BME280;13413;52.336;21.200;2023-02-16T12:19:13;100925.31;;;11.26;52.36
25510;BME280;13413;52.336;21.200;2023-02-16T12:22:19;100923.25;;;11.22;52.50
25510;BME280;13413;52.336;21.200;2023-02-16T12:25:28;100923.19;;;11.17;52.29
25510;BME280;13413;52.336;21.200;2023-02-16T12:28:29;100920.97;;;11.19;52.36
25510;BME280;13413;52.336;21.200;2023-02-16T12:31:37;100916.23;;;11.38;52.65
25510;BME280;13413;52.336;21.200;2023-02-16T12:34:47;100918.98;;;11.62;52.19
25510;BME280;13413;52.336;21.200;2023-02-16T12:37:47;100914.80;;;11.68;52.13
25510;BME280;13413;52.336;21.200;2023-02-16T12:40:55;100913.70;;;11.80;51.80
25510;BME280;13413;52.336;21.200;2023-02-16T12:43:59;100913.35;;;11.89;52.04
25510;BME280;13413;52.336;21.200;2023-02-16T12:47:01;100913.80;;;12.02;52.13
25510;BME280;13413;52.336;21.200;2023-02-16T12:50:00;100911.98;;;12.13;52.07
25510;BME280;13413;52.336;21.200;2023-02-16T12:52:57;100905.80;;;12.20;51.73
25510;BME280;13413;52.336;21.200;2023-02-16T12:55:58;100912.42;;;12.25;51.60
25510;BME280;13413;52.336;21.200;2023-02-16T12:59:02;100906.41;;;12.25;51.47
25510;BME280;13413;52.336;21.200;2023-02-16T13:10:53;100898.13;;;12.51;51.42
25510;BME280;13413;52.336;21.200;2023-02-16T13:13:50;100899.38;;;12.22;50.96
25510;BME280;13413;52.336;21.200;2023-02-16T13:16:48;100894.79;;;12.01;51.16
25510;BME280;13413;52.336;21.200;2023-02-16T13:19:45;100895.02;;;11.93;51.35
25510;BME280;13413;52.336;21.200;2023-02-16T13:22:58;100893.83;;;11.95;51.44
25510;BME280;13413;52.336;21.200;2023-02-16T13:26:18;100895.45;;;12.06;51.35
25510;BME280;13413;52.336;21.200;2023-02-16T13:29:49;100893.41;;;12.10;51.53
25510;BME280;13413;52.336;21.200;2023-02-16T13:32:58;100895.27;;;12.13;51.14
25510;BME280;13413;52.336;21.200;2023-02-16T13:36:11;100891.56;;;12.14;51.15
25510;BME280;13413;52.336;21.200;2023-02-16T13:39:24;100885.70;;;12.20;51.18
25510;BME280;13413;52.336;21.200;2023-02-16T13:42:50;100889.10;;;12.20;50.91
25510;BME280;13413;52.336;21.200;2023-02-16T13:45:48;100883.92;;;12.13;51.21
25510;BME280;13413;52.336;21.200;2023-02-16T13:48:48;100879.14;;;12.20;51.14
25510;BME280;13413;52.336;21.200;2023-02-16T13:51:45;100873.89;;;12.26;50.85
25510;BME280;13413;52.336;21.200;2023-02-16T13:54:41;100871.20;;;12.29;51.06
25510;BME280;13413;52.336;21.200;2023-02-16T13:58:00;100872.36;;;12.33;51.05
25510;BME280;13413;52.336;21.200;2023-02-16T14:00:54;100871.99;;;12.25;50.85
25510;BME280;13413;52.336;21.200;2023-02-16T14:03:48;100871.06;;;12.32;51.02
25510;BME280;13413;52.336;21.200;2023-02-16T14:06:42;100870.61;;;12.31;50.65
25510;BME280;13413;52.336;21.200;2023-02-16T14:09:48;100870.09;;;12.19;50.62
25510;BME280;13413;52.336;21.200;2023-02-16T14:12:43;100869.94;;;12.03;50.78
25510;BME280;13413;52.336;21.200;2023-02-16T14:15:49;100871.17;;;11.94;50.91
25510;BME280;13413;52.336;21.200;2023-02-16T14:18:52;100874.05;;;11.85;50.99
25510;BME280;13413;52.336;21.200;2023-02-16T14:21:49;100871.70;;;11.78;50.94
25510;BME280;13413;52.336;21.200;2023-02-16T14:24:41;100870.14;;;11.81;51.04
25510;BME280;13413;52.336;21.200;2023-02-16T14:27:47;100865.26;;;11.90;50.98
25510;BME280;13413;52.336;21.200;2023-02-16T14:30:54;100868.48;;;11.94;51.06
25510;BME280;13413;52.336;21.200;2023-02-16T14:33:55;100868.73;;;11.96;51.26
25510;BME280;13413;52.336;21.200;2023-02-16T14:37:20;100868.59;;;11.95;50.96
25510;BME280;13413;52.336;21.200;2023-02-16T14:40:20;100873.63;;;11.92;51.26
25510;BME280;13413;52.336;21.200;2023-02-16T14:43:23;100874.20;;;11.89;51.16
25510;BME280;13413;52.336;21.200;2023-02-16T14:46:39;100872.71;;;11.79;51.29
25510;BME280;13413;52.336;21.200;2023-02-16T14:56:41;100877.33;;;11.53;51.61
25510;BME280;13413;52.336;21.200;2023-02-16T14:59:41;100882.81;;;11.51;51.62
25510;BME280;13413;52.336;21.200;2023-02-16T15:02:40;100881.02;;;11.44;51.73
25510;BME280;13413;52.336;21.200;2023-02-16T15:05:36;100876.88;;;11.38;51.90
25510;BME280;13413;52.336;21.200;2023-02-16T15:08:33;100875.76;;;11.34;52.00
25510;BME280;13413;52.336;21.200;2023-02-16T15:11:33;100870.05;;;11.27;52.05
25510;BME280;13413;52.336;21.200;2023-02-16T15:14:28;100869.35;;;11.20;52.39
25510;BME280;13413;52.336;21.200;2023-02-16T15:17:31;100869.83;;;11.15;52.29
25510;BME280;13413;52.336;21.200;2023-02-16T15:20:28;100871.41;;;11.07;52.54
25510;BME280;13413;52.336;21.200;2023-02-16T15:23:23;100873.16;;;11.02;52.57
25510;BME280;13413;52.336;21.200;2023-02-16T15:31:44;100871.34;;;10.90;52.95
25510;BME280;13413;52.336;21.200;2023-02-16T15:34:38;100872.06;;;10.80;53.23
25510;BME280;13413;52.336;21.200;2023-02-16T15:37:32;100868.67;;;10.72;53.48
25510;BME280;13413;52.336;21.200;2023-02-16T15:40:32;100865.81;;;10.69;53.41
25510;BME280;13413;52.336;21.200;2023-02-16T15:43:33;100863.04;;;10.60;53.66
25510;BME280;13413;52.336;21.200;2023-02-16T15:46:30;100860.67;;;10.51;53.98
25510;BME280;13413;52.336;21.200;2023-02-16T15:49:28;100859.80;;;10.43;53.99
25510;BME280;13413;52.336;21.200;2023-02-16T15:52:28;100855.10;;;10.35;54.19
25510;BME280;13413;52.336;21.200;2023-02-16T15:55:25;100852.10;;;10.32;54.43
25510;BME280;13413;52.336;21.200;2023-02-16T15:58:20;100848.38;;;10.29;54.32
25510;BME280;13413;52.336;21.200;2023-02-16T16:01:23;100844.64;;;10.24;54.30
25510;BME280;13413;52.336;21.200;2023-02-16T16:04:21;100843.06;;;10.15;54.55
25510;BME280;13413;52.336;21.200;2023-02-16T16:07:18;100842.68;;;10.05;54.92
25510;BME280;13413;52.336;21.200;2023-02-16T16:10:17;100836.79;;;9.99;55.00
25510;BME280;13413;52.336;21.200;2023-02-16T16:13:19;100835.55;;;9.96;55.18
25510;BME280;13413;52.336;21.200;2023-02-16T16:16:14;100843.39;;;9.87;55.37
25510;BME280;13413;52.336;21.200;2023-02-16T16:19:15;100844.52;;;9.83;55.59
25510;BME280;13413;52.336;21.200;2023-02-16T16:22:29;100848.61;;;9.76;55.57
25510;BME280;13413;52.336;21.200;2023-02-16T16:25:38;100856.31;;;9.68;55.89
25510;BME280;13413;52.336;21.200;2023-02-16T16:28:36;100854.55;;;9.63;56.00
25510;BME280;13413;52.336;21.200;2023-02-16T16:31:42;100852.24;;;9.61;56.18
25510;BME280;13413;52.336;21.200;2023-02-16T16:34:38;100845.60;;;9.57;56.37
25510;BME280;13413;52.336;21.200;2023-02-16T16:37:34;100849.36;;;9.55;56.39
25510;BME280;13413;52.336;21.200;2023-02-16T16:40:31;100842.29;;;9.52;56.55
25510;BME280;13413;52.336;21.200;2023-02-16T16:43:27;100835.45;;;9.48;56.55
25510;BME280;13413;52.336;21.200;2023-02-16T16:46:25;100838.02;;;9.45;56.65
25510;BME280;13413;52.336;21.200;2023-02-16T16:49:19;100832.91;;;9.40;56.90
25510;BME280;13413;52.336;21.200;2023-02-16T16:52:16;100827.87;;;9.32;57.01
25510;BME280;13413;52.336;21.200;2023-02-16T16:55:27;100826.62;;;9.28;57.37
25510;BME280;13413;52.336;21.200;2023-02-16T16:58:22;100824.81;;;9.26;57.49
25510;BME280;13413;52.336;21.200;2023-02-16T17:01:16;100828.09;;;9.23;57.64